Albany, Missouri
Current Conditions -  °F | °C
As of 11:53 AM on Sunday 21 Dec 2014 (Local Time) from KLWD Reporting Station
Haze Haze  
Wind Chill: -1°   Ceiling: 700
Heat Index:   Visibility: 4mi
Dew Point:   Wind: 13mph
Humidity: 97%   Direction: 180°S
Pressure: 29.92"   Gusts: 21mph
Location:  40.25°N, 94.33°W
Report Text: KLWD 211753Z AUTO 18011G18KT 4SM BR OVC007 03/03 A2992 RMK AO2 CIG 005V011 SLP140 T00330028 10039 20017 58023
Loading
Personal Weather Stations






























Interactive Weather Map New forecast layout! Learn more

10-Day Weather Forecast

Advertisements
Track Severe Weather on mobile